Time;durP1;ratioP1;P1;durP2;ratioP2;P2;SDS_P1;SDS_P2;PMS_P1;PMS_P2;Temp;Humidity;BMP_temperature;BMP_pressure;BME280_temperature;BME280_humidity;BME280_pressure;Samples;Min_cycle;Max_cycle;Signal;HPM_P1;HPM_P2
2023/07/19 00:00:37;;;;;;;10.70;2.88;;;;;;;30.60;44.21;98719.75;2111627;28;20047;-82
2023/07/19 00:01:39;;;;;;;6.25;3.00;;;;;;;30.55;43.86;98717.03;2110900;28;20047;-82
2023/07/19 00:02:40;;;;;;;5.32;2.58;;;;;;;30.51;43.92;98711.31;2110491;27;20054;-83
2023/07/19 00:03:43;;;;;;;8.02;3.95;;;;;;;30.55;44.23;98711.56;2110245;27;21266;-82
2023/07/19 00:04:44;;;;;;;5.63;2.88;;;;;;;30.56;43.68;98711.28;2099937;28;20052;-81
2023/07/19 00:05:45;;;;;;;5.85;3.05;;;;;;;30.51;43.49;98708.59;2101679;28;20047;-83
2023/07/19 00:06:48;;;;;;;4.57;2.78;;;;;;;30.56;43.87;98705.81;2103633;28;20184;-83
2023/07/19 00:07:49;;;;;;;7.25;2.60;;;;;;;30.56;43.66;98700.31;2102099;28;20048;-82
2023/07/19 00:08:50;;;;;;;7.45;2.40;;;;;;;30.53;43.99;98705.56;2104042;28;20141;-82
2023/07/19 00:09:51;;;;;;;9.38;3.42;;;;;;;30.50;43.73;98696.78;2108116;28;20538;-82
2023/07/19 00:10:53;;;;;;;5.93;3.33;;;;;;;30.53;44.09;98700.06;2103064;28;20066;-82
2023/07/19 00:11:53;;;;;;;7.30;2.85;;;;;;;30.54;43.33;98697.06;2109823;28;20054;-81
2023/07/19 00:12:55;;;;;;;4.57;3.08;;;;;;;30.56;43.56;98707.72;2110802;27;20460;-83
2023/07/19 00:13:56;;;;;;;8.77;3.15;;;;;;;30.47;43.51;98694.63;2107751;28;20078;-82
2023/07/19 00:14:58;;;;;;;6.30;3.20;;;;;;;30.52;43.39;98698.44;2111442;27;20043;-81
2023/07/19 00:15:59;;;;;;;7.50;2.42;;;;;;;30.54;42.96;98696.25;2111325;28;20055;-82
2023/07/19 00:17:01;;;;;;;7.50;3.17;;;;;;;30.49;43.01;98697.91;2111640;28;20051;-83
2023/07/19 00:18:02;;;;;;;9.77;2.88;;;;;;;30.49;42.89;98694.34;2111547;28;20058;-83
2023/07/19 00:19:04;;;;;;;5.55;3.15;;;;;;;30.49;43.12;98688.88;2111263;27;20074;-82
2023/07/19 00:20:06;;;;;;;3.35;2.55;;;;;;;30.54;42.78;98697.06;2111830;28;20081;-82
2023/07/19 00:21:08;;;;;;;7.15;2.65;;;;;;;30.56;43.08;98700.31;2111184;27;20042;-82
2023/07/19 00:22:10;;;;;;;2.97;2.42;;;;;;;30.56;43.49;98704.97;2111568;28;20310;-83
2023/07/19 00:23:12;;;;;;;4.60;2.80;;;;;;;30.51;43.22;98703.09;2112531;28;20072;-82
2023/07/19 00:24:13;;;;;;;7.68;3.05;;;;;;;30.45;43.39;98694.09;2111314;28;20127;-82
2023/07/19 00:25:14;;;;;;;8.35;3.85;;;;;;;30.41;42.73;98701.22;2112145;28;20047;-82
2023/07/19 00:26:16;;;;;;;4.97;3.08;;;;;;;30.43;42.55;98700.97;2111643;28;20131;-82
2023/07/19 00:27:17;;;;;;;8.57;3.63;;;;;;;30.44;42.52;98697.91;2113386;27;20126;-82
2023/07/19 00:28:18;;;;;;;7.22;3.28;;;;;;;30.43;42.35;98693.56;2112600;28;20043;-82
2023/07/19 00:29:19;;;;;;;6.45;2.78;;;;;;;30.49;42.25;98697.09;2110758;28;20043;-82
2023/07/19 00:30:21;;;;;;;8.52;2.88;;;;;;;30.43;42.78;98684.53;2110579;28;20731;-82
2023/07/19 00:31:22;;;;;;;5.43;2.85;;;;;;;30.43;43.11;98690.81;2106494;28;20052;-82
2023/07/19 00:32:24;;;;;;;3.78;2.25;;;;;;;30.48;42.99;98688.06;2108566;28;20040;-85
2023/07/19 00:33:24;;;;;;;6.00;3.20;;;;;;;30.51;42.79;98692.16;2110197;28;20036;-83
2023/07/19 00:34:26;;;;;;;3.83;2.33;;;;;;;30.52;42.30;98687.50;2113072;27;20079;-82
2023/07/19 00:35:27;;;;;;;5.40;3.20;;;;;;;30.50;42.71;98679.56;2110261;28;21062;-81
2023/07/19 00:36:29;;;;;;;9.63;3.45;;;;;;;30.48;42.39;98677.13;2112556;27;20046;-81
2023/07/19 00:37:33;;;;;;;5.53;2.40;;;;;;;30.52;42.72;98684.75;2111135;28;20047;-81
2023/07/19 00:38:36;;;;;;;4.97;2.88;;;;;;;30.43;42.97;98674.41;2112369;28;20044;-81
2023/07/19 00:39:36;;;;;;;5.32;2.72;;;;;;;30.41;43.78;98676.59;2112066;28;20043;-83
2023/07/19 00:40:38;;;;;;;6.88;2.88;;;;;;;30.43;43.52;98677.13;2111659;27;20070;-81
2023/07/19 00:41:39;;;;;;;5.40;3.08;;;;;;;30.47;43.51;98683.69;2110614;28;20048;-82
2023/07/19 00:42:41;;;;;;;4.55;2.70;;;;;;;30.45;43.59;98677.69;2113978;27;20063;-83
2023/07/19 00:43:42;;;;;;;6.88;2.83;;;;;;;30.46;43.40;98673.84;2114628;27;20055;-82
2023/07/19 00:44:43;;;;;;;5.38;3.22;;;;;;;30.44;42.84;98670.56;2118534;27;20055;-82
2023/07/19 00:45:47;;;;;;;4.63;3.10;;;;;;;30.43;42.99;98668.94;2117645;28;20067;-82
2023/07/19 00:46:49;;;;;;;5.55;2.63;;;;;;;30.47;43.19;98674.66;2109342;28;20169;-82
2023/07/19 00:47:50;;;;;;;4.75;2.42;;;;;;;30.45;43.29;98677.69;2117041;27;20082;-82
2023/07/19 00:48:51;;;;;;;7.65;3.47;;;;;;;30.40;43.27;98669.50;2117754;28;20044;-82
2023/07/19 00:49:53;;;;;;;7.35;2.55;;;;;;;30.45;43.80;98665.91;2113837;28;20126;-82
2023/07/19 00:50:55;;;;;;;5.03;2.78;;;;;;;30.46;43.26;98668.38;2110446;28;20035;-82
2023/07/19 00:51:59;;;;;;;5.38;2.92;;;;;;;30.44;43.26;98664.28;2110222;28;20298;-82
2023/07/19 00:53:01;;;;;;;5.38;2.97;;;;;;;30.44;42.76;98672.47;2109857;28;20050;-83
2023/07/19 00:54:05;;;;;;;4.15;2.70;;;;;;;30.44;43.30;98667.81;2111754;28;20050;-82
2023/07/19 00:55:07;;;;;;;4.90;2.38;;;;;;;30.46;43.11;98673.84;2108196;28;20510;-82
2023/07/19 00:56:09;;;;;;;4.15;3.08;;;;;;;30.46;43.21;98673.03;2109496;28;20506;-82
2023/07/19 00:57:11;;;;;;;5.07;3.03;;;;;;;30.45;42.55;98674.94;2111535;27;20082;-82
2023/07/19 00:58:11;;;;;;;3.67;2.75;;;;;;;30.48;43.53;98671.66;2111414;28;20047;-81
2023/07/19 00:59:15;;;;;;;3.67;2.47;;;;;;;30.42;43.45;98678.25;2110573;28;20036;-82
2023/07/19 01:00:18;;;;;;;7.60;3.05;;;;;;;30.44;42.88;98686.97;2108958;28;20051;-83
2023/07/19 01:01:21;;;;;;;8.88;3.58;;;;;;;30.43;43.03;98679.06;2105621;27;20052;-81
2023/07/19 01:02:23;;;;;;;7.15;3.13;;;;;;;30.41;42.85;98681.25;2107775;28;20064;-83
2023/07/19 01:03:25;;;;;;;4.50;3.15;;;;;;;30.43;42.82;98677.13;2107466;28;20043;-81
2023/07/19 01:04:27;;;;;;;9.43;3.10;;;;;;;30.42;42.67;98683.72;2108183;28;20050;-81
2023/07/19 01:05:29;;;;;;;6.28;2.97;;;;;;;30.44;42.75;98677.94;2110314;28;20048;-81
2023/07/19 01:06:29;;;;;;;4.75;3.30;;;;;;;30.47;42.96;98685.59;2107875;28;20142;-82
2023/07/19 01:07:32;;;;;;;6.38;2.85;;;;;;;30.39;43.44;98676.03;2112037;28;20417;-82
2023/07/19 01:08:35;;;;;;;8.95;2.55;;;;;;;30.44;42.41;98677.94;2110952;28;20084;-82
2023/07/19 01:09:37;;;;;;;8.13;3.15;;;;;;;30.39;42.14;98683.44;2109690;28;20499;-82
2023/07/19 01:10:37;;;;;;;10.02;3.13;;;;;;;30.33;42.24;98681.84;2111958;28;20040;-81
2023/07/19 01:11:40;;;;;;;7.80;3.08;;;;;;;30.31;42.05;98682.09;2110076;28;20463;-82
2023/07/19 01:12:41;;;;;;;8.15;2.70;;;;;;;30.31;41.56;98676.63;2109750;28;20043;-81
2023/07/19 01:13:51;;;;;;;4.90;3.13;;;;;;;30.33;41.63;98682.66;2110668;28;20036;-81
2023/07/19 01:14:52;;;;;;;8.38;3.10;;;;;;;30.33;42.38;98688.13;2110866;27;20043;-81
2023/07/19 01:15:54;;;;;;;4.13;2.25;;;;;;;30.32;43.45;98689.22;2112059;28;20131;-81
2023/07/19 01:16:55;;;;;;;4.95;3.38;;;;;;;30.35;43.60;98687.84;2110079;28;20460;-81
2023/07/19 01:17:56;;;;;;;5.72;3.08;;;;;;;30.37;43.31;98682.91;2112736;27;20046;-82
2023/07/19 01:18:57;;;;;;;7.20;3.15;;;;;;;30.39;43.47;98680.72;2108846;27;20067;-82
2023/07/19 01:19:59;;;;;;;5.90;3.05;;;;;;;30.39;43.13;98678.78;2111615;28;20055;-82
2023/07/19 01:20:59;;;;;;;6.72;3.17;;;;;;;30.41;42.63;98681.25;2109564;28;20047;-82
2023/07/19 01:22:01;;;;;;;6.57;2.85;;;;;;;30.41;42.06;98676.59;2108421;28;20096;-81
2023/07/19 01:23:04;;;;;;;9.10;2.85;;;;;;;30.42;42.36;98675.50;2110864;28;20079;-83
2023/07/19 01:24:06;;;;;;;6.22;2.60;;;;;;;30.41;42.64;98675.78;2111893;28;21204;-81
2023/07/19 01:25:08;;;;;;;4.30;2.40;;;;;;;30.32;43.80;98672.81;2111093;28;20048;-81
2023/07/19 01:26:09;;;;;;;5.45;2.65;;;;;;;30.35;42.89;98680.47;2112088;28;20039;-84
2023/07/19 01:27:10;;;;;;;5.45;2.20;;;;;;;30.36;42.34;98675.78;2111279;27;20083;-81
2023/07/19 01:28:12;;;;;;;6.15;3.38;;;;;;;30.39;42.86;98677.97;2111115;28;20059;-82
2023/07/19 01:29:13;;;;;;;7.22;2.70;;;;;;;30.36;43.06;98684.81;2109991;28;20063;-82
2023/07/19 01:30:15;;;;;;;6.15;3.20;;;;;;;30.35;43.09;98675.00;2110520;28;20040;-81
2023/07/19 01:31:16;;;;;;;7.20;3.95;;;;;;;30.41;42.85;98670.31;2110768;28;20039;-81
2023/07/19 01:32:18;;;;;;;7.28;3.30;;;;;;;30.42;42.91;98674.66;2109476;27;20097;-84
2023/07/19 01:33:20;;;;;;;6.63;3.13;;;;;;;30.45;42.62;98674.94;2108573;28;20565;-81
2023/07/19 01:34:22;;;;;;;4.57;2.78;;;;;;;30.47;42.94;98670.00;2110488;28;20048;-81
2023/07/19 01:35:23;;;;;;;7.95;2.65;;;;;;;30.48;42.93;98670.84;2109438;27;20050;-82
2023/07/19 01:36:26;;;;;;;5.45;3.03;;;;;;;30.45;42.54;98674.09;2110166;28;20047;-83
2023/07/19 01:37:28;;;;;;;7.38;3.75;;;;;;;30.44;43.09;98673.28;2110148;27;20146;-81
2023/07/19 01:38:31;;;;;;;11.30;2.70;;;;;;;30.44;42.88;98669.75;2110885;28;20529;-82
2023/07/19 01:39:32;;;;;;;7.13;2.92;;;;;;;30.41;42.51;98667.56;2109501;28;20044;-82
2023/07/19 01:40:35;;;;;;;3.65;3.13;;;;;;;30.38;42.86;98655.28;2111523;28;20054;-81
2023/07/19 01:41:35;;;;;;;5.30;2.33;;;;;;;30.39;42.93;98658.81;2110151;28;20043;-81
2023/07/19 01:42:37;;;;;;;8.25;2.83;;;;;;;30.36;43.09;98664.84;2107980;28;20070;-81
2023/07/19 01:43:38;;;;;;;7.15;2.75;;;;;;;30.34;42.61;98661.56;2110541;28;20047;-81
2023/07/19 01:44:40;;;;;;;5.15;2.90;;;;;;;30.31;42.98;98668.41;2111082;28;20027;-83
2023/07/19 01:45:41;;;;;;;6.22;2.72;;;;;;;30.40;42.63;98669.50;2109020;28;20040;-81
2023/07/19 01:46:42;;;;;;;4.20;2.70;;;;;;;30.39;42.50;98664.28;2112511;28;20067;-82
2023/07/19 01:47:43;;;;;;;5.25;2.97;;;;;;;30.34;43.00;98656.94;2109270;28;20059;-81
2023/07/19 01:48:45;;;;;;;4.43;2.83;;;;;;;30.34;42.89;98659.69;2111366;28;20075;-83
2023/07/19 01:49:46;;;;;;;4.13;2.78;;;;;;;30.34;43.71;98659.69;2102328;28;20051;-82
2023/07/19 01:50:48;;;;;;;6.25;2.83;;;;;;;30.30;43.83;98658.59;2111100;28;20040;-83
2023/07/19 01:51:49;;;;;;;4.78;2.63;;;;;;;30.31;43.22;98659.41;2111066;28;20044;-81
2023/07/19 01:52:51;;;;;;;6.75;3.88;;;;;;;30.32;43.50;98656.41;2112272;28;20097;-82
2023/07/19 01:53:54;;;;;;;6.20;2.75;;;;;;;30.31;43.31;98656.66;2102267;28;20097;-81
2023/07/19 01:54:56;;;;;;;8.77;3.70;;;;;;;30.29;43.48;98648.75;2104865;28;20055;-82
2023/07/19 01:55:57;;;;;;;7.38;3.30;;;;;;;30.27;44.02;98648.19;2106929;28;20048;-82
2023/07/19 01:56:59;;;;;;;4.55;2.50;;;;;;;30.31;43.34;98649.25;2101708;28;20048;-81
2023/07/19 01:57:59;;;;;;;8.55;3.30;;;;;;;30.32;43.86;98650.91;2101718;28;20048;-81
2023/07/19 01:59:01;;;;;;;3.75;2.50;;;;;;;30.31;43.62;98654.75;2100132;28;20140;-81
2023/07/19 02:00:03;;;;;;;6.18;3.08;;;;;;;30.28;43.72;98655.31;2103460;28;20044;-82
2023/07/19 02:01:05;;;;;;;6.00;2.83;;;;;;;30.27;43.74;98648.19;2110092;28;20051;-80
2023/07/19 02:02:06;;;;;;;8.52;3.38;;;;;;;30.27;43.62;98648.19;2109483;28;20036;-82
2023/07/19 02:03:07;;;;;;;6.25;2.80;;;;;;;30.23;43.56;98638.94;2108581;28;20048;-81
2023/07/19 02:04:08;;;;;;;6.45;3.22;;;;;;;30.22;43.85;98638.09;2109133;28;20055;-83
2023/07/19 02:05:10;;;;;;;6.15;2.90;;;;;;;30.26;43.55;98647.41;2105151;28;20090;-82
2023/07/19 02:06:11;;;;;;;5.57;2.78;;;;;;;30.24;43.83;98655.06;2104953;28;20063;-82
2023/07/19 02:07:13;;;;;;;7.47;3.83;;;;;;;30.28;43.70;98647.09;2109076;28;20510;-81
2023/07/19 02:08:14;;;;;;;4.90;2.65;;;;;;;30.30;43.66;98646.81;2109440;28;20047;-80
2023/07/19 02:09:18;;;;;;;9.18;3.05;;;;;;;30.24;43.58;98640.56;2108367;28;20541;-82
2023/07/19 02:10:19;;;;;;;5.82;2.97;;;;;;;30.26;43.54;98641.09;2106914;28;20071;-84
2023/07/19 02:11:21;;;;;;;6.10;2.30;;;;;;;30.25;43.79;98634.78;2109865;28;20081;-81
2023/07/19 02:12:22;;;;;;;4.88;3.20;;;;;;;30.27;43.69;98631.78;2108284;28;20062;-80
2023/07/19 02:13:24;;;;;;;5.05;2.67;;;;;;;30.28;43.77;98638.88;2107193;28;20051;-81
2023/07/19 02:14:24;;;;;;;8.13;3.25;;;;;;;30.24;44.01;98632.34;2108542;28;20056;-81
2023/07/19 02:15:26;;;;;;;5.38;2.65;;;;;;;30.30;44.09;98636.69;2107433;28;20052;-81
2023/07/19 02:16:27;;;;;;;6.40;3.13;;;;;;;30.27;43.69;98634.53;2109610;28;20069;-83
2023/07/19 02:17:29;;;;;;;4.55;2.88;;;;;;;30.27;43.81;98631.78;2109266;28;20035;-81
2023/07/19 02:18:29;;;;;;;3.95;2.60;;;;;;;30.28;43.89;98636.16;2108535;28;20051;-81
2023/07/19 02:19:31;;;;;;;4.57;2.58;;;;;;;30.26;43.72;98635.63;2109818;28;20044;-81
2023/07/19 02:20:32;;;;;;;6.07;2.90;;;;;;;30.28;43.88;98638.88;2109020;28;20793;-81
2023/07/19 02:21:34;;;;;;;6.72;3.00;;;;;;;30.27;43.99;98637.25;2109718;28;20208;-82
2023/07/19 02:22:35;;;;;;;9.32;3.28;;;;;;;30.25;43.96;98628.50;2109665;28;20048;-81
2023/07/19 02:23:37;;;;;;;9.95;3.60;;;;;;;30.22;43.83;98629.06;2107967;28;20048;-82
2023/07/19 02:24:40;;;;;;;7.82;3.70;;;;;;;30.26;43.75;98630.97;2107807;28;20047;-82
2023/07/19 02:25:42;;;;;;;6.75;2.80;;;;;;;30.28;43.71;98631.53;2109107;28;20054;-82
2023/07/19 02:26:43;;;;;;;8.15;2.88;;;;;;;30.28;43.70;98627.94;2108613;28;20135;-82
2023/07/19 02:27:45;;;;;;;5.82;2.80;;;;;;;30.33;43.51;98635.31;2107443;28;20055;-84
2023/07/19 02:28:46;;;;;;;6.43;3.10;;;;;;;30.37;43.28;98629.00;2109110;28;20040;-82
2023/07/19 02:29:47;;;;;;;5.78;2.80;;;;;;;30.30;44.12;98620.28;2106769;28;20039;-83
2023/07/19 02:30:48;;;;;;;6.60;3.22;;;;;;;30.30;43.89;98622.19;2109604;28;20044;-81
2023/07/19 02:31:51;;;;;;;7.80;3.05;;;;;;;30.28;43.38;98617.84;2107801;28;20141;-82
2023/07/19 02:32:53;;;;;;;7.20;3.03;;;;;;;30.21;43.27;98619.22;2107424;28;20502;-82
2023/07/19 02:33:54;;;;;;;5.68;3.10;;;;;;;30.16;43.07;98620.03;2109268;28;20085;-83
2023/07/19 02:34:56;;;;;;;6.20;3.75;;;;;;;30.08;43.46;98611.59;2107823;28;20058;-82
2023/07/19 02:35:57;;;;;;;6.43;2.63;;;;;;;30.12;43.27;98615.44;2107522;28;20063;-81
2023/07/19 02:36:58;;;;;;;7.53;3.40;;;;;;;30.14;43.21;98610.47;2108043;28;20043;-82
2023/07/19 02:37:59;;;;;;;6.00;3.08;;;;;;;30.16;42.77;98608.28;2107487;28;20047;-82
2023/07/19 02:39:02;;;;;;;7.97;2.67;;;;;;;30.10;43.04;98610.22;2110490;28;20530;-81
2023/07/19 02:40:06;;;;;;;6.20;3.33;;;;;;;30.04;42.85;98614.91;2109213;28;20058;-81
2023/07/19 02:41:10;;;;;;;10.30;2.65;;;;;;;30.00;42.89;98611.06;2108969;28;20060;-82
2023/07/19 02:42:10;;;;;;;6.32;3.15;;;;;;;29.95;42.53;98597.44;2110556;28;20064;-82
2023/07/19 02:43:12;;;;;;;10.85;3.42;;;;;;;29.95;42.66;98608.38;2112282;28;20039;-82
2023/07/19 02:44:13;;;;;;;8.05;2.83;;;;;;;29.99;42.76;98611.38;2109462;28;20050;-81
2023/07/19 02:45:15;;;;;;;4.80;3.28;;;;;;;30.04;42.57;98623.09;2108255;28;20044;-81
2023/07/19 02:46:16;;;;;;;4.20;3.47;;;;;;;30.03;42.81;98612.44;2110044;28;20059;-82
2023/07/19 02:47:17;;;;;;;4.63;2.72;;;;;;;30.09;43.01;98613.22;2107890;28;20043;-82
2023/07/19 02:48:19;;;;;;;6.70;3.20;;;;;;;30.07;43.13;98602.59;2109308;28;20062;-82
2023/07/19 02:49:20;;;;;;;5.57;2.83;;;;;;;30.10;42.87;98606.69;2108672;28;20111;-82
2023/07/19 02:50:21;;;;;;;6.97;3.08;;;;;;;30.07;42.88;98602.59;2111103;28;20555;-82
2023/07/19 02:51:22;;;;;;;8.35;3.17;;;;;;;30.07;42.77;98605.31;2110997;28;20050;-82
2023/07/19 02:52:24;;;;;;;6.35;3.03;;;;;;;29.97;42.21;98599.88;2110031;28;20055;-81
2023/07/19 02:53:25;;;;;;;3.53;2.70;;;;;;;30.02;42.07;98608.06;2109152;28;20048;-82
2023/07/19 02:54:26;;;;;;;6.55;3.08;;;;;;;30.05;42.50;98608.31;2108870;28;20719;-82
2023/07/19 02:55:29;;;;;;;5.68;3.35;;;;;;;30.06;42.44;98612.72;2105917;28;20052;-82
2023/07/19 02:56:31;;;;;;;6.00;2.70;;;;;;;30.05;42.57;98611.06;2102488;28;20076;-82
2023/07/19 02:57:32;;;;;;;4.65;2.40;;;;;;;30.11;42.52;98614.59;2109716;28;20040;-83
2023/07/19 02:58:33;;;;;;;5.90;2.55;;;;;;;30.08;42.82;98606.13;2105370;28;20074;-83
2023/07/19 02:59:34;;;;;;;5.57;3.25;;;;;;;30.11;43.29;98620.06;2103478;28;20071;-83
2023/07/19 03:00:39;;;;;;;8.88;3.20;;;;;;;30.11;43.31;98616.50;2101040;28;20586;-83
2023/07/19 03:01:42;;;;;;;5.13;3.25;;;;;;;30.10;42.95;98615.69;2102124;28;20047;-82
2023/07/19 03:02:46;;;;;;;6.35;3.25;;;;;;;30.11;42.79;98608.31;2103171;28;20040;-83
2023/07/19 03:03:49;;;;;;;4.88;2.40;;;;;;;30.06;43.11;98609.13;2112271;28;20051;-82
2023/07/19 03:04:50;;;;;;;6.20;2.85;;;;;;;30.09;42.91;98613.22;2110885;28;20043;-82
2023/07/19 03:05:51;;;;;;;4.78;2.88;;;;;;;30.10;43.22;98614.88;2113164;27;20399;-81
2023/07/19 03:06:52;;;;;;;6.03;3.92;;;;;;;30.05;42.79;98612.97;2111984;28;20055;-82
2023/07/19 03:07:54;;;;;;;7.75;3.33;;;;;;;30.06;43.03;98612.72;2111907;28;20182;-81
2023/07/19 03:08:55;;;;;;;5.90;3.17;;;;;;;30.08;42.81;98612.41;2105382;27;20060;-82
2023/07/19 03:09:57;;;;;;;8.43;2.95;;;;;;;30.12;42.86;98609.97;2108507;28;20040;-82
2023/07/19 03:10:59;;;;;;;7.03;2.78;;;;;;;30.09;42.95;98602.28;2110733;28;21362;-82
2023/07/19 03:12:01;;;;;;;4.00;2.75;;;;;;;30.14;42.73;98610.47;2112482;28;20066;-82
2023/07/19 03:13:03;;;;;;;7.57;3.00;;;;;;;30.13;42.51;98612.41;2109342;27;20498;-83
2023/07/19 03:14:05;;;;;;;5.03;2.95;;;;;;;30.15;42.37;98612.94;2112617;28;20051;-84
2023/07/19 03:15:07;;;;;;;7.82;2.67;;;;;;;30.09;42.77;98614.06;2111627;28;20060;-82
2023/07/19 03:16:09;;;;;;;5.75;2.78;;;;;;;30.11;42.38;98611.03;2113187;28;20035;-82
2023/07/19 03:17:10;;;;;;;4.53;2.83;;;;;;;30.10;42.38;98612.97;2111556;27;20044;-82
2023/07/19 03:18:11;;;;;;;4.72;2.60;;;;;;;30.16;42.38;98614.56;2109810;27;20391;-82
2023/07/19 03:19:12;;;;;;;10.57;3.42;;;;;;;30.15;42.97;98612.94;2110747;27;20371;-82
2023/07/19 03:20:14;;;;;;;5.55;2.78;;;;;;;30.13;42.23;98612.41;2112622;28;20039;-83
2023/07/19 03:21:15;;;;;;;7.15;2.60;;;;;;;30.10;42.66;98602.03;2110960;27;20051;-84
2023/07/19 03:22:17;;;;;;;6.28;2.50;;;;;;;30.14;42.86;98624.97;2111874;28;20103;-83
2023/07/19 03:23:17;;;;;;;6.15;2.90;;;;;;;30.15;43.21;98620.34;2111055;27;20055;-81
2023/07/19 03:24:20;;;;;;;5.53;3.22;;;;;;;30.14;42.71;98624.97;2111904;28;20063;-82
2023/07/19 03:25:21;;;;;;;6.18;2.85;;;;;;;30.15;42.71;98623.88;2112661;28;20498;-83
2023/07/19 03:26:24;;;;;;;6.60;3.53;;;;;;;30.13;43.10;98625.25;2113128;28;20067;-83
2023/07/19 03:27:24;;;;;;;6.85;3.83;;;;;;;30.11;42.95;98627.44;2110447;27;20073;-85
2023/07/19 03:28:26;;;;;;;5.30;3.45;;;;;;;30.10;42.90;98629.38;2113338;28;20040;-82
2023/07/19 03:29:27;;;;;;;5.60;3.00;;;;;;;30.10;43.00;98632.09;2109940;28;20034;-83
2023/07/19 03:30:29;;;;;;;6.78;2.80;;;;;;;30.00;42.85;98627.47;2114058;28;20046;-82
2023/07/19 03:31:30;;;;;;;5.45;3.00;;;;;;;29.98;42.52;98629.69;2113763;27;20051;-83
2023/07/19 03:32:32;;;;;;;6.50;2.95;;;;;;;30.01;41.97;98623.66;2112623;28;20043;-82
2023/07/19 03:33:33;;;;;;;8.55;3.22;;;;;;;29.96;42.26;98622.88;2110973;27;20126;-82
2023/07/19 03:34:35;;;;;;;7.85;3.20;;;;;;;29.92;42.63;98617.16;2109476;27;20043;-83
2023/07/19 03:35:36;;;;;;;6.30;3.10;;;;;;;29.94;42.30;98625.88;2110901;28;20544;-85
2023/07/19 03:36:37;;;;;;;10.02;3.22;;;;;;;29.89;42.43;98614.94;2111173;28;20067;-82
2023/07/19 03:37:43;;;;;;;4.55;2.75;;;;;;;29.86;42.46;98617.41;2114995;28;20468;-82
2023/07/19 03:38:45;;;;;;;13.82;4.10;;;;;;;29.82;42.18;98617.16;2111927;28;20054;-84
2023/07/19 03:39:46;;;;;;;9.15;3.50;;;;;;;29.82;42.26;98625.38;2113665;28;20085;-83
2023/07/19 03:40:48;;;;;;;7.30;3.50;;;;;;;29.79;42.54;98617.72;2111791;28;20077;-82
2023/07/19 03:41:50;;;;;;;7.68;2.97;;;;;;;29.77;42.43;98603.50;2105889;28;20040;-84
2023/07/19 03:42:52;;;;;;;9.50;3.35;;;;;;;29.79;42.64;98620.47;2103442;28;20051;-83
2023/07/19 03:43:53;;;;;;;8.13;3.45;;;;;;;29.81;42.33;98613.63;2105790;28;20103;-81
2023/07/19 03:44:55;;;;;;;14.23;4.03;;;;;;;29.80;42.43;98613.88;2104240;28;20043;-81
2023/07/19 03:45:55;;;;;;;5.78;2.88;;;;;;;29.80;42.84;98608.41;2106131;28;20092;-83
2023/07/19 03:46:57;;;;;;;5.82;3.45;;;;;;;29.81;42.62;98607.31;2106239;28;20435;-82
2023/07/19 03:47:58;;;;;;;6.65;3.13;;;;;;;29.78;42.64;98605.97;2109535;28;20079;-82
2023/07/19 03:49:04;;;;;;;6.25;3.22;;;;;;;29.81;42.61;98607.31;2101489;28;20068;-82
2023/07/19 03:50:06;;;;;;;5.30;2.78;;;;;;;29.78;42.70;98610.59;2103996;28;20040;-82
2023/07/19 03:51:08;;;;;;;6.75;2.92;;;;;;;29.80;42.72;98609.22;2107003;28;20024;-82
2023/07/19 03:52:08;;;;;;;9.00;3.88;;;;;;;29.72;42.55;98600.78;2113991;27;20125;-82
2023/07/19 03:53:10;;;;;;;7.25;3.55;;;;;;;29.70;42.64;98602.97;2107118;28;21418;-82
2023/07/19 03:54:11;;;;;;;8.40;3.92;;;;;;;29.58;42.69;98597.78;2110424;28;20504;-82
2023/07/19 03:55:13;;;;;;;9.02;3.30;;;;;;;29.64;42.84;98602.16;2112898;28;20063;-81
2023/07/19 03:56:14;;;;;;;6.63;3.28;;;;;;;29.63;42.75;98597.81;2112080;27;20511;-83
2023/07/19 03:57:17;;;;;;;7.68;3.70;;;;;;;29.55;42.78;98585.50;2113136;28;20107;-81
2023/07/19 03:58:18;;;;;;;5.40;3.13;;;;;;;29.60;42.90;98596.41;2112651;28;20044;-82
2023/07/19 03:59:20;;;;;;;6.38;3.17;;;;;;;29.66;42.88;98589.06;2111942;27;20047;-83
2023/07/19 04:00:20;;;;;;;9.43;3.10;;;;;;;29.61;42.83;98597.22;2112565;27;20129;-82
2023/07/19 04:01:22;;;;;;;6.00;3.80;;;;;;;29.61;42.74;98580.81;2111884;27;20104;-82
2023/07/19 04:02:23;;;;;;;8.18;2.70;;;;;;;29.58;43.09;98593.13;2109779;28;20050;-82
2023/07/19 04:03:26;;;;;;;9.55;3.55;;;;;;;29.60;43.21;98590.13;2112168;27;20043;-81
2023/07/19 04:04:26;;;;;;;7.82;3.47;;;;;;;29.66;43.44;98593.72;2112696;28;20078;-84
2023/07/19 04:05:28;;;;;;;10.30;3.15;;;;;;;29.61;43.10;98587.13;2106621;28;20558;-81
2023/07/19 04:06:29;;;;;;;11.68;4.00;;;;;;;29.63;43.29;98597.81;2104954;28;20128;-82
2023/07/19 04:07:31;;;;;;;8.82;3.38;;;;;;;29.62;43.10;98591.50;2103143;28;20086;-82
2023/07/19 04:08:32;;;;;;;5.28;3.28;;;;;;;29.65;43.37;98589.34;2111582;27;20077;-81
2023/07/19 04:09:33;;;;;;;8.93;3.35;;;;;;;29.62;43.24;98594.22;2104996;28;20040;-83
2023/07/19 04:10:34;;;;;;;13.50;3.90;;;;;;;29.64;43.59;98595.88;2105114;28;20044;-84
2023/07/19 04:11:36;;;;;;;7.47;3.08;;;;;;;29.69;43.27;98595.88;2104348;28;20112;-84
2023/07/19 04:12:38;;;;;;;5.03;3.03;;;;;;;29.75;43.42;98605.69;2105313;28;20038;-84
2023/07/19 04:13:40;;;;;;;10.20;3.30;;;;;;;29.74;43.51;98601.34;2103652;28;20055;-83
2023/07/19 04:14:40;;;;;;;8.95;4.00;;;;;;;29.70;43.23;98600.25;2104522;28;20534;-83
2023/07/19 04:15:42;;;;;;;5.95;2.63;;;;;;;29.62;43.23;98596.16;2102993;28;20070;-83
2023/07/19 04:16:45;;;;;;;10.00;3.00;;;;;;;29.63;43.27;98595.06;2113519;27;20917;-81
2023/07/19 04:17:47;;;;;;;7.43;2.90;;;;;;;29.61;43.26;98600.81;2102943;28;20033;-82
2023/07/19 04:18:48;;;;;;;7.32;3.38;;;;;;;29.61;43.52;98600.81;2105232;28;20130;-82
2023/07/19 04:19:50;;;;;;;9.52;3.17;;;;;;;29.61;43.86;98597.22;2112706;28;20043;-81
2023/07/19 04:20:55;;;;;;;5.68;3.15;;;;;;;29.59;43.68;98597.53;2113612;28;20035;-82
2023/07/19 04:21:57;;;;;;;6.95;3.10;;;;;;;29.56;43.77;98595.34;2112517;28;20043;-83
2023/07/19 04:22:58;;;;;;;6.72;3.55;;;;;;;29.46;43.70;98592.63;2111770;27;20104;-83
2023/07/19 04:24:00;;;;;;;4.75;2.95;;;;;;;29.46;44.10;98589.88;2102606;28;20066;-81
2023/07/19 04:25:01;;;;;;;6.68;3.35;;;;;;;29.49;44.07;98586.59;2112249;27;20043;-82
2023/07/19 04:26:05;;;;;;;7.18;3.25;;;;;;;29.47;43.96;98586.06;2110081;27;20048;-82
2023/07/19 04:27:06;;;;;;;6.32;3.17;;;;;;;29.50;43.84;98585.50;2114685;28;20035;-83
2023/07/19 04:28:09;;;;;;;8.82;3.88;;;;;;;29.48;44.28;98582.25;2113145;28;20529;-84
2023/07/19 04:29:10;;;;;;;9.25;3.40;;;;;;;29.50;44.13;98587.41;2113835;27;20072;-82
2023/07/19 04:30:11;;;;;;;4.93;3.08;;;;;;;29.43;44.36;98573.25;2111638;28;20143;-82
2023/07/19 04:31:13;;;;;;;8.48;3.33;;;;;;;29.46;43.97;98584.44;2112511;28;20139;-82
2023/07/19 04:32:14;;;;;;;10.30;3.38;;;;;;;29.50;43.98;98580.03;2113858;27;20131;-81
2023/07/19 04:33:16;;;;;;;7.65;3.55;;;;;;;29.51;44.23;98578.16;2110342;27;20040;-82
2023/07/19 04:34:17;;;;;;;9.48;3.58;;;;;;;29.52;44.12;98583.31;2109998;27;20047;-81
2023/07/19 04:35:19;;;;;;;7.47;3.17;;;;;;;29.51;44.17;98586.34;2113697;28;20271;-82
2023/07/19 04:36:20;;;;;;;6.90;3.35;;;;;;;29.52;44.37;98577.84;2110773;28;20055;-82
2023/07/19 04:37:22;;;;;;;8.60;3.65;;;;;;;29.56;44.79;98576.22;2112120;28;20134;-82
2023/07/19 04:38:23;;;;;;;5.18;3.47;;;;;;;29.54;44.47;98570.19;2113541;28;20036;-81
2023/07/19 04:39:25;;;;;;;6.95;3.50;;;;;;;29.58;44.59;98574.00;2111326;27;20086;-83
2023/07/19 04:40:26;;;;;;;5.88;3.35;;;;;;;29.59;44.29;98578.38;2110972;28;20444;-82
2023/07/19 04:41:27;;;;;;;8.65;3.53;;;;;;;29.62;44.53;98587.94;2114965;28;20104;-81
2023/07/19 04:42:28;;;;;;;5.22;2.50;;;;;;;29.66;44.38;98588.25;2111664;27;20204;-82
2023/07/19 04:43:32;;;;;;;8.48;3.25;;;;;;;29.67;44.63;98587.13;2113003;28;20073;-81
2023/07/19 04:44:33;;;;;;;5.78;2.83;;;;;;;29.64;44.56;98587.69;2111391;28;20082;-84
2023/07/19 04:45:34;;;;;;;7.18;3.25;;;;;;;29.64;44.54;98580.31;2113672;28;20036;-82
2023/07/19 04:46:36;;;;;;;6.55;2.90;;;;;;;29.60;44.85;98568.28;2110902;28;20155;-82
2023/07/19 04:47:37;;;;;;;6.97;3.53;;;;;;;29.62;44.85;98587.94;2113256;28;20422;-83
2023/07/19 04:48:39;;;;;;;9.13;3.42;;;;;;;29.62;44.72;98582.47;2112890;28;20070;-81
2023/07/19 04:49:40;;;;;;;4.97;2.97;;;;;;;29.55;45.11;98579.22;2112759;28;20117;-82
2023/07/19 04:50:42;;;;;;;19.52;6.07;;;;;;;29.52;45.40;98580.59;2111197;28;20043;-82